Time;durP1;ratioP1;P1;durP2;ratioP2;P2;SDS_P1;SDS_P2;PMS_P1;PMS_P2;Temp;Humidity;BMP_temperature;BMP_pressure;BME280_temperature;BME280_humidity;BME280_pressure;Samples;Min_cycle;Max_cycle;Signal;HPM_P1;HPM_P2
2021/07/24 00:01:51;;;;;;;4.25;2.30;;;24.30;51.70;;;;;;4882513;29;20040;-60
2021/07/24 00:04:17;;;;;;;4.07;2.15;;;24.30;51.80;;;;;;4882287;29;20075;-60
2021/07/24 00:06:42;;;;;;;5.40;2.30;;;24.30;51.90;;;;;;4882532;29;20509;-60
2021/07/24 00:09:08;;;;;;;5.85;2.88;;;24.30;51.90;;;;;;4882398;29;20044;-60
2021/07/24 00:11:35;;;;;;;4.55;2.10;;;24.40;51.90;;;;;;4882779;29;20053;-60
2021/07/24 00:14:00;;;;;;;4.28;2.15;;;24.30;51.90;;;;;;4881237;29;20390;-60
2021/07/24 00:16:26;;;;;;;5.07;2.40;;;24.30;51.90;;;;;;4882628;29;20025;-60
2021/07/24 00:18:52;;;;;;;5.35;2.53;;;24.30;52.00;;;;;;4882292;29;20025;-60
2021/07/24 00:21:17;;;;;;;4.60;2.50;;;24.30;51.90;;;;;;4882374;29;20025;-60
2021/07/24 00:23:43;;;;;;;4.47;2.20;;;24.20;52.00;;;;;;4882086;29;20484;-60
2021/07/24 00:26:12;;;;;;;3.38;2.00;;;24.20;52.00;;;;;;4882288;29;20161;-60
2021/07/24 00:28:41;;;;;;;3.95;2.25;;;24.20;52.10;;;;;;4882291;29;20540;-60
2021/07/24 00:31:07;;;;;;;3.80;2.15;;;24.20;52.10;;;;;;4883221;29;20037;-60
2021/07/24 00:33:32;;;;;;;3.97;2.22;;;24.20;52.10;;;;;;4882909;29;20063;-60
2021/07/24 00:35:58;;;;;;;4.72;2.40;;;24.20;52.10;;;;;;4882379;29;20060;-60
2021/07/24 00:38:25;;;;;;;8.10;2.70;;;24.20;52.10;;;;;;4882190;29;20029;-60
2021/07/24 00:40:58;;;;;;;3.95;2.35;;;24.10;52.10;;;;;;4881051;29;20423;-60
2021/07/24 00:43:35;;;;;;;4.70;2.28;;;24.10;52.20;;;;;;4882064;29;20500;-60
2021/07/24 00:46:02;;;;;;;3.90;2.30;;;24.10;52.20;;;;;;4881966;29;20473;-60
2021/07/24 00:48:28;;;;;;;4.55;2.25;;;24.20;52.20;;;;;;4881742;29;20112;-60
2021/07/24 00:50:57;;;;;;;6.20;2.05;;;24.10;52.20;;;;;;4881872;29;20057;-60
2021/07/24 00:53:24;;;;;;;5.65;2.60;;;24.10;52.20;;;;;;4881635;29;20044;-60
2021/07/24 00:55:50;;;;;;;4.88;2.30;;;24.10;52.20;;;;;;4882061;29;20040;-60
2021/07/24 00:58:37;;;;;;;4.82;2.58;;;24.10;52.30;;;;;;4881581;29;20504;-60
2021/07/24 01:01:05;;;;;;;3.92;2.33;;;24.10;52.30;;;;;;4881679;29;20037;-60
2021/07/24 01:03:31;;;;;;;4.32;2.45;;;24.00;52.30;;;;;;4881390;29;20045;-60
2021/07/24 01:05:58;;;;;;;4.95;2.95;;;24.10;52.30;;;;;;4881507;29;20441;-60
2021/07/24 01:08:24;;;;;;;4.93;2.22;;;24.00;52.30;;;;;;4881534;29;20143;-60
2021/07/24 01:10:53;;;;;;;5.18;2.17;;;24.00;52.30;;;;;;4881403;29;20398;-60
2021/07/24 01:13:19;;;;;;;3.95;2.10;;;24.00;52.30;;;;;;4881605;29;20037;-60
2021/07/24 01:15:46;;;;;;;4.13;2.25;;;24.00;52.40;;;;;;4881199;29;20052;-60
2021/07/24 01:18:12;;;;;;;4.47;2.42;;;24.00;52.30;;;;;;4881314;29;20036;-60
2021/07/24 01:20:39;;;;;;;3.47;2.10;;;24.00;52.40;;;;;;4881399;29;20109;-60
2021/07/24 01:23:05;;;;;;;4.30;2.40;;;24.00;52.40;;;;;;4881211;29;20037;-60
2021/07/24 01:25:31;;;;;;;4.35;2.50;;;24.00;52.40;;;;;;4881446;29;20022;-60
2021/07/24 01:27:56;;;;;;;5.07;2.97;;;24.00;52.40;;;;;;4881135;29;20120;-60
2021/07/24 01:30:22;;;;;;;5.03;2.83;;;23.90;52.50;;;;;;4881145;29;20037;-60
2021/07/24 01:32:47;;;;;;;4.75;2.35;;;24.00;52.40;;;;;;4881049;29;20033;-60
2021/07/24 01:35:13;;;;;;;4.25;2.38;;;23.90;52.50;;;;;;4881025;29;20025;-60
2021/07/24 01:37:38;;;;;;;4.90;2.60;;;23.90;52.50;;;;;;4880955;29;20478;-60
2021/07/24 01:40:05;;;;;;;4.35;2.50;;;23.90;52.60;;;;;;4879781;29;20187;-60
2021/07/24 01:42:30;;;;;;;4.60;2.50;;;23.90;52.60;;;;;;4880947;29;20485;-60
2021/07/24 01:44:56;;;;;;;4.88;2.53;;;23.80;52.60;;;;;;4880843;29;20054;-60
2021/07/24 01:47:21;;;;;;;4.70;2.78;;;23.80;52.60;;;;;;4880911;29;20033;-60
2021/07/24 01:52:48;;;;;;;5.18;2.80;;;23.80;52.80;;;;;;4880757;29;20092;-60
2021/07/24 01:55:27;;;;;;;3.88;2.20;;;23.80;52.80;;;;;;4880596;29;20045;-59
2021/07/24 01:57:55;;;;;;;4.85;2.50;;;23.80;52.80;;;;;;4880495;29;20393;-60
2021/07/24 02:00:21;;;;;;;5.10;2.20;;;23.80;52.80;;;;;;4880606;29;20021;-60
2021/07/24 02:02:50;;;;;;;4.50;2.55;;;23.70;52.90;;;;;;4880015;29;20564;-60
2021/07/24 02:05:40;;;;;;;4.63;2.70;;;23.70;52.90;;;;;;4878887;29;20017;-60
2021/07/24 02:08:06;;;;;;;4.85;2.78;;;23.70;52.90;;;;;;4879035;29;20457;-60
2021/07/24 02:10:32;;;;;;;4.45;2.45;;;23.70;53.00;;;;;;4879700;29;20545;-60
2021/07/24 02:12:59;;;;;;;4.30;2.28;;;23.70;53.00;;;;;;4879786;29;20071;-60
2021/07/24 02:15:25;;;;;;;5.47;2.45;;;23.70;53.00;;;;;;4879464;29;20455;-60
2021/07/24 02:17:51;;;;;;;5.53;2.92;;;23.70;53.00;;;;;;4879460;29;20052;-60
2021/07/24 02:20:21;;;;;;;4.80;2.50;;;23.70;53.10;;;;;;4879364;29;20063;-60
2021/07/24 02:22:47;;;;;;;4.55;2.38;;;23.60;53.10;;;;;;4879327;29;20029;-60
2021/07/24 02:25:13;;;;;;;4.28;2.42;;;23.60;53.10;;;;;;4879390;29;20055;-60
2021/07/24 02:27:44;;;;;;;5.18;2.78;;;23.50;53.20;;;;;;4879299;29;20086;-60
2021/07/24 02:30:10;;;;;;;3.95;2.03;;;23.50;53.30;;;;;;4880947;29;20107;-60
2021/07/24 02:32:35;;;;;;;5.00;2.70;;;23.50;53.30;;;;;;4884441;29;20036;-60
2021/07/24 02:35:01;;;;;;;5.05;2.42;;;23.50;53.30;;;;;;4884938;29;20029;-60
2021/07/24 02:37:26;;;;;;;4.53;2.47;;;23.50;53.30;;;;;;4883541;29;20041;-60
2021/07/24 02:39:52;;;;;;;4.43;2.50;;;23.50;53.30;;;;;;4879684;29;20040;-60
2021/07/24 02:42:17;;;;;;;4.97;2.67;;;23.50;53.30;;;;;;4879381;29;20442;-60
2021/07/24 02:44:43;;;;;;;4.15;2.30;;;23.50;53.30;;;;;;4879256;29;20017;-60
2021/07/24 02:47:08;;;;;;;4.78;2.97;;;23.50;53.30;;;;;;4879121;29;20039;-60
2021/07/24 02:49:34;;;;;;;4.80;2.60;;;23.50;53.30;;;;;;4879225;29;20044;-60
2021/07/24 02:51:59;;;;;;;4.53;2.58;;;23.50;53.30;;;;;;4879419;29;20053;-60
2021/07/24 02:54:25;;;;;;;4.93;2.67;;;23.50;53.40;;;;;;4883237;29;20029;-60
2021/07/24 02:56:50;;;;;;;3.97;2.17;;;23.50;53.30;;;;;;4879118;29;20025;-60
2021/07/24 02:59:16;;;;;;;4.45;2.50;;;23.50;53.40;;;;;;4879192;29;20029;-60
2021/07/24 03:01:41;;;;;;;5.50;2.35;;;23.50;53.40;;;;;;4879021;29;20053;-60
2021/07/24 03:04:07;;;;;;;6.63;2.50;;;23.40;53.50;;;;;;4844941;29;1028153;-60
2021/07/24 03:06:32;;;;;;;4.32;2.33;;;23.40;53.50;;;;;;4879638;29;20500;-60
2021/07/24 03:08:58;;;;;;;5.68;2.63;;;23.40;53.50;;;;;;4879466;29;20040;-60
2021/07/24 03:11:23;;;;;;;4.53;2.30;;;23.40;53.50;;;;;;4879683;29;20059;-60
2021/07/24 03:13:49;;;;;;;5.05;2.45;;;23.40;53.50;;;;;;4879634;29;20451;-60
2021/07/24 03:16:14;;;;;;;4.65;2.67;;;23.40;53.50;;;;;;4879290;29;20036;-60
2021/07/24 03:18:40;;;;;;;4.60;2.17;;;23.40;53.50;;;;;;4879238;29;20069;-60
2021/07/24 03:21:05;;;;;;;3.85;2.35;;;23.40;53.50;;;;;;4879547;29;20027;-59
2021/07/24 03:23:31;;;;;;;6.43;2.50;;;23.40;53.60;;;;;;4879722;29;20435;-60
2021/07/24 03:25:56;;;;;;;5.20;2.72;;;23.30;53.70;;;;;;4879418;29;20367;-60
2021/07/24 03:28:22;;;;;;;5.38;3.30;;;23.30;53.70;;;;;;4879468;29;20037;-60
2021/07/24 03:30:47;;;;;;;7.20;2.80;;;23.30;53.70;;;;;;4879238;29;20430;-60
2021/07/24 03:33:13;;;;;;;4.93;2.60;;;23.30;53.80;;;;;;4879059;29;20401;-60
2021/07/24 03:35:38;;;;;;;4.97;2.83;;;23.30;53.70;;;;;;4879277;29;20040;-60
2021/07/24 03:38:05;;;;;;;4.82;2.65;;;23.30;53.70;;;;;;4879199;29;20079;-60
2021/07/24 03:40:31;;;;;;;4.45;2.50;;;23.20;53.70;;;;;;4879178;29;20033;-60
2021/07/24 03:42:57;;;;;;;4.78;2.60;;;23.30;53.70;;;;;;4879088;29;20029;-60
2021/07/24 03:45:22;;;;;;;4.60;2.58;;;23.20;53.80;;;;;;4879127;29;20648;-60
2021/07/24 03:47:48;;;;;;;5.47;2.72;;;23.20;53.80;;;;;;4878990;29;20037;-60
2021/07/24 03:50:13;;;;;;;3.95;2.28;;;23.20;53.80;;;;;;4879219;29;20057;-61
2021/07/24 03:52:39;;;;;;;4.60;2.53;;;23.20;53.80;;;;;;4878854;29;20041;-60
2021/07/24 03:55:05;;;;;;;4.30;2.40;;;23.20;53.70;;;;;;4878926;29;20033;-60
2021/07/24 03:57:30;;;;;;;4.28;2.50;;;23.20;53.80;;;;;;4879029;29;20363;-60
2021/07/24 03:59:59;;;;;;;4.95;2.88;;;23.20;53.80;;;;;;4878990;29;20044;-60
2021/07/24 04:02:26;;;;;;;6.45;2.65;;;23.20;53.80;;;;;;4877802;29;20037;-60
2021/07/24 04:04:52;;;;;;;4.20;2.47;;;23.20;53.80;;;;;;4877606;29;20033;-60
2021/07/24 04:07:21;;;;;;;5.68;2.40;;;23.20;53.80;;;;;;4878797;29;20390;-60
2021/07/24 04:09:47;;;;;;;4.88;2.75;;;23.20;53.80;;;;;;4878820;29;20044;-60
2021/07/24 04:12:12;;;;;;;6.03;2.50;;;23.20;53.80;;;;;;4878710;29;20497;-60
2021/07/24 04:14:38;;;;;;;4.82;2.50;;;23.10;53.90;;;;;;4878800;29;20036;-60
2021/07/24 04:17:04;;;;;;;4.35;2.50;;;23.10;53.90;;;;;;4878668;29;20651;-60
2021/07/24 04:19:30;;;;;;;5.80;2.97;;;23.10;54.00;;;;;;4878665;29;20048;-60
2021/07/24 04:21:56;;;;;;;5.38;2.92;;;23.10;53.90;;;;;;4878716;29;20037;-60
2021/07/24 04:24:21;;;;;;;5.30;2.80;;;23.10;54.00;;;;;;4878793;29;20394;-60
2021/07/24 04:26:47;;;;;;;5.13;2.83;;;23.10;54.00;;;;;;4878725;29;20025;-60
2021/07/24 04:29:12;;;;;;;5.40;2.85;;;23.10;54.00;;;;;;4880374;29;20433;-60
2021/07/24 04:31:38;;;;;;;5.75;2.40;;;23.10;54.00;;;;;;4881859;29;20085;-60
2021/07/24 04:34:03;;;;;;;4.70;2.78;;;23.00;54.00;;;;;;4882016;29;20072;-60
2021/07/24 04:36:29;;;;;;;6.75;2.78;;;23.00;54.00;;;;;;4881919;29;20112;-60
2021/07/24 04:38:54;;;;;;;5.45;2.78;;;23.00;54.00;;;;;;4881949;29;20037;-60
2021/07/24 04:41:21;;;;;;;4.82;2.70;;;23.00;54.00;;;;;;4881934;29;20108;-60
2021/07/24 04:43:46;;;;;;;5.00;2.60;;;23.00;54.00;;;;;;4881804;29;20030;-60
2021/07/24 04:46:13;;;;;;;4.88;2.58;;;23.00;54.00;;;;;;4881860;29;20380;-60
2021/07/24 04:48:38;;;;;;;5.70;2.60;;;23.00;53.90;;;;;;4881765;29;20120;-60
2021/07/24 04:51:04;;;;;;;5.45;2.38;;;23.00;54.00;;;;;;4881871;29;20078;-60
2021/07/24 04:53:32;;;;;;;6.47;2.67;;;23.00;54.00;;;;;;4881613;29;20442;-60
2021/07/24 04:55:58;;;;;;;5.50;2.92;;;23.00;54.00;;;;;;4881649;29;20393;-60
2021/07/24 04:58:24;;;;;;;7.50;3.60;;;23.00;54.00;;;;;;4881632;29;20032;-60
2021/07/24 05:00:50;;;;;;;5.13;2.88;;;23.00;54.00;;;;;;4881415;29;20397;-60
2021/07/24 05:03:16;;;;;;;5.00;2.63;;;23.00;54.00;;;;;;4881280;29;20045;-60
2021/07/24 05:05:43;;;;;;;5.15;2.67;;;23.00;54.00;;;;;;4881722;29;20080;-60
2021/07/24 05:08:09;;;;;;;4.97;2.83;;;23.10;53.90;;;;;;4881385;29;20036;-60
2021/07/24 05:10:35;;;;;;;5.47;3.10;;;23.00;53.90;;;;;;4881457;29;20034;-60
2021/07/24 05:13:01;;;;;;;5.00;2.90;;;23.00;53.90;;;;;;4881087;29;20397;-61
2021/07/24 05:15:27;;;;;;;4.47;2.35;;;23.10;53.90;;;;;;4881287;29;20108;-60
2021/07/24 05:17:52;;;;;;;5.40;3.22;;;23.10;53.80;;;;;;4881250;29;20417;-60
2021/07/24 05:20:18;;;;;;;5.13;2.92;;;23.10;53.80;;;;;;4881194;29;20534;-60
2021/07/24 05:22:43;;;;;;;4.78;2.60;;;23.10;53.90;;;;;;4881149;29;20033;-60
2021/07/24 05:25:10;;;;;;;5.35;2.70;;;23.10;53.80;;;;;;4881539;29;20021;-60
2021/07/24 05:27:35;;;;;;;5.20;2.80;;;23.00;53.80;;;;;;4881041;29;20550;-60
2021/07/24 05:30:01;;;;;;;7.78;2.83;;;23.10;53.80;;;;;;4880964;29;20112;-61
2021/07/24 05:32:26;;;;;;;4.90;2.80;;;23.10;53.90;;;;;;4880912;29;20037;-60
2021/07/24 05:34:52;;;;;;;5.78;2.90;;;23.00;53.80;;;;;;4880946;29;20036;-60
2021/07/24 05:37:17;;;;;;;4.93;2.83;;;23.00;53.90;;;;;;4880778;29;20029;-60
2021/07/24 05:39:43;;;;;;;3.95;2.53;;;23.00;53.80;;;;;;4879988;29;20081;-60
2021/07/24 05:42:08;;;;;;;6.57;2.92;;;23.10;53.80;;;;;;4879144;29;20061;-60
2021/07/24 05:44:34;;;;;;;4.78;2.67;;;23.10;53.80;;;;;;4880716;29;20029;-60
2021/07/24 05:47:02;;;;;;;4.90;2.38;;;23.10;53.80;;;;;;4880577;29;20029;-60
2021/07/24 05:49:28;;;;;;;5.38;2.80;;;23.10;53.70;;;;;;4880563;29;20429;-60
2021/07/24 05:51:53;;;;;;;4.88;2.90;;;23.10;53.70;;;;;;4880573;29;20033;-60
2021/07/24 05:54:22;;;;;;;6.05;2.70;;;23.20;53.60;;;;;;4880566;29;20041;-60
2021/07/24 05:56:48;;;;;;;5.22;2.53;;;23.10;53.60;;;;;;4880479;29;20036;-60
2021/07/24 05:59:13;;;;;;;7.00;3.00;;;23.20;53.60;;;;;;4880402;29;20033;-60
2021/07/24 06:01:39;;;;;;;5.13;2.97;;;23.10;53.60;;;;;;4880388;29;20037;-60
2021/07/24 06:04:04;;;;;;;5.30;3.25;;;23.10;53.60;;;;;;4880278;29;20053;-60
2021/07/24 06:06:30;;;;;;;4.75;2.70;;;23.20;53.50;;;;;;4880325;29;20021;-60
2021/07/24 06:08:55;;;;;;;6.05;2.95;;;23.20;53.50;;;;;;4880218;29;20037;-60
2021/07/24 06:11:21;;;;;;;4.90;2.83;;;23.20;53.50;;;;;;4880274;29;20359;-60
2021/07/24 06:13:47;;;;;;;4.32;2.42;;;23.20;53.40;;;;;;4880089;29;20075;-60
2021/07/24 06:16:13;;;;;;;5.38;2.70;;;23.20;53.40;;;;;;4880213;29;20056;-60
2021/07/24 06:18:38;;;;;;;5.25;2.67;;;23.20;53.40;;;;;;4880113;29;20060;-60
2021/07/24 06:21:04;;;;;;;6.28;2.78;;;23.20;53.40;;;;;;4880101;29;20025;-60
2021/07/24 06:23:29;;;;;;;5.10;2.88;;;23.20;53.30;;;;;;4880090;29;20040;-60
2021/07/24 06:25:56;;;;;;;5.43;2.88;;;23.20;53.30;;;;;;4878799;29;20667;-60
2021/07/24 06:28:21;;;;;;;4.65;2.80;;;23.30;53.30;;;;;;4879960;29;20465;-60
2021/07/24 06:30:47;;;;;;;5.57;2.95;;;23.30;53.30;;;;;;4879914;29;20092;-60
2021/07/24 06:33:13;;;;;;;6.32;2.63;;;23.30;53.20;;;;;;4879732;29;20045;-60
2021/07/24 06:35:39;;;;;;;5.03;2.47;;;23.30;53.20;;;;;;4879885;29;20187;-60
2021/07/24 06:38:05;;;;;;;5.80;2.97;;;23.30;53.30;;;;;;4878543;29;20108;-60
2021/07/24 06:40:31;;;;;;;7.03;2.75;;;23.30;53.20;;;;;;4879696;29;20025;-60
2021/07/24 06:42:56;;;;;;;4.72;2.65;;;23.30;53.20;;;;;;4879635;29;20040;-60
2021/07/24 06:45:22;;;;;;;6.45;2.90;;;23.30;53.20;;;;;;4879694;29;20422;-60
2021/07/24 06:47:48;;;;;;;5.03;2.95;;;23.30;53.20;;;;;;4879644;29;20060;-60
2021/07/24 06:50:13;;;;;;;5.32;2.65;;;23.30;53.20;;;;;;4878332;29;20104;-60
2021/07/24 06:52:39;;;;;;;5.07;2.78;;;23.30;53.20;;;;;;4878716;29;20093;-60
2021/07/24 06:55:05;;;;;;;5.65;2.90;;;23.30;53.20;;;;;;4879447;29;20032;-60
2021/07/24 06:57:31;;;;;;;5.20;2.80;;;23.30;53.10;;;;;;4878114;29;20393;-60
2021/07/24 06:59:57;;;;;;;5.10;2.70;;;23.40;53.20;;;;;;4879485;29;20100;-60
2021/07/24 07:02:23;;;;;;;6.80;2.60;;;23.30;53.20;;;;;;4879237;29;20068;-60
2021/07/24 07:04:48;;;;;;;6.00;2.97;;;23.40;53.10;;;;;;4879486;29;20068;-60
2021/07/24 07:07:14;;;;;;;5.20;3.20;;;23.40;53.10;;;;;;4879333;29;20021;-60
2021/07/24 07:09:39;;;;;;;5.50;2.83;;;23.40;53.10;;;;;;4879222;29;20103;-60
2021/07/24 07:12:05;;;;;;;5.68;3.03;;;23.40;53.10;;;;;;4879251;29;20056;-60
2021/07/24 07:14:30;;;;;;;5.63;2.90;;;23.40;53.10;;;;;;4879245;29;20116;-60
2021/07/24 07:16:56;;;;;;;6.55;3.25;;;23.40;53.10;;;;;;4879313;29;20025;-60
2021/07/24 07:19:22;;;;;;;5.90;2.78;;;23.40;53.10;;;;;;4878985;29;20040;-60
2021/07/24 07:21:48;;;;;;;4.68;2.65;;;23.40;53.10;;;;;;4879212;29;20029;-60
2021/07/24 07:24:14;;;;;;;4.38;2.53;;;23.40;53.10;;;;;;4879175;29;20437;-60
2021/07/24 07:26:41;;;;;;;6.50;2.60;;;23.40;53.10;;;;;;4879028;29;20052;-60
2021/07/24 07:29:08;;;;;;;5.43;3.00;;;23.40;53.00;;;;;;4879108;29;20094;-60
2021/07/24 07:31:35;;;;;;;4.80;2.75;;;23.40;53.00;;;;;;4878984;29;20058;-60
2021/07/24 07:34:01;;;;;;;5.10;2.83;;;23.40;53.00;;;;;;4878776;29;20044;-60
2021/07/24 07:36:27;;;;;;;5.95;2.83;;;23.40;53.00;;;;;;4878934;29;20029;-60
2021/07/24 07:38:53;;;;;;;5.00;2.70;;;23.50;53.00;;;;;;4877713;29;20089;-60
2021/07/24 07:41:19;;;;;;;5.03;2.85;;;23.40;53.10;;;;;;4878986;29;20339;-60
2021/07/24 07:43:48;;;;;;;6.10;3.17;;;23.50;53.10;;;;;;4878963;29;20029;-60
2021/07/24 07:46:14;;;;;;;6.72;3.03;;;23.50;53.10;;;;;;4879173;29;20025;-60
2021/07/24 07:48:40;;;;;;;5.90;3.08;;;23.50;53.10;;;;;;4879067;29;20025;-60
2021/07/24 07:51:07;;;;;;;5.80;2.88;;;23.50;53.10;;;;;;4878982;29;20124;-60
2021/07/24 07:53:33;;;;;;;5.25;2.88;;;23.50;53.20;;;;;;4878674;29;20037;-60
2021/07/24 07:56:00;;;;;;;6.28;3.08;;;23.40;53.20;;;;;;4878754;29;20088;-60
2021/07/24 07:58:25;;;;;;;5.30;3.28;;;23.50;53.20;;;;;;4878855;29;20072;-62
2021/07/24 08:00:52;;;;;;;5.28;3.03;;;23.50;53.20;;;;;;4878834;29;20097;-61
2021/07/24 08:03:20;;;;;;;6.60;3.22;;;23.50;53.20;;;;;;4878983;29;20045;-60
2021/07/24 08:05:46;;;;;;;5.03;2.80;;;23.50;53.20;;;;;;4882521;29;20136;-60
2021/07/24 08:08:11;;;;;;;5.53;2.90;;;23.50;53.20;;;;;;4882629;29;20437;-60
2021/07/24 08:10:37;;;;;;;5.47;2.95;;;23.50;53.20;;;;;;4881178;29;20504;-60
2021/07/24 08:13:18;;;;;;;6.07;2.67;;;23.50;53.20;;;;;;4882312;29;20596;-60
2021/07/24 08:15:46;;;;;;;7.80;2.78;;;23.50;53.20;;;;;;4882238;29;20029;-60
2021/07/24 08:18:12;;;;;;;4.63;2.70;;;23.50;53.20;;;;;;4880913;29;20381;-60
2021/07/24 08:20:40;;;;;;;5.28;3.10;;;23.50;53.20;;;;;;4882194;29;20029;-60
2021/07/24 08:23:10;;;;;;;5.80;3.13;;;23.50;53.20;;;;;;4882057;29;20021;-60
2021/07/24 08:25:35;;;;;;;5.57;3.03;;;23.50;53.20;;;;;;4882009;29;20035;-60
2021/07/24 08:28:02;;;;;;;6.20;2.88;;;23.50;53.20;;;;;;4882141;29;20032;-60
2021/07/24 08:30:28;;;;;;;5.30;3.08;;;23.50;53.20;;;;;;4881966;29;20549;-61
2021/07/24 08:32:54;;;;;;;5.82;2.92;;;23.50;53.20;;;;;;4881955;29;20069;-61
2021/07/24 08:35:19;;;;;;;5.70;3.10;;;23.50;53.10;;;;;;4881838;29;20048;-61
2021/07/24 08:37:45;;;;;;;5.90;3.25;;;23.50;53.10;;;;;;4882129;29;20119;-61
2021/07/24 08:40:12;;;;;;;5.30;2.80;;;23.50;53.10;;;;;;4881933;29;20029;-61
2021/07/24 08:42:41;;;;;;;5.35;3.13;;;23.50;53.10;;;;;;4881819;29;20068;-61
2021/07/24 08:45:13;;;;;;;6.68;3.08;;;23.50;53.10;;;;;;4881715;29;20404;-61
2021/07/24 08:47:40;;;;;;;6.07;3.20;;;23.50;53.10;;;;;;4881479;29;20504;-61
2021/07/24 08:50:08;;;;;;;7.95;3.47;;;23.60;53.10;;;;;;4881699;29;20051;-61
2021/07/24 08:52:35;;;;;;;6.07;3.13;;;23.60;53.10;;;;;;4881421;29;20092;-61
2021/07/24 08:55:07;;;;;;;7.05;3.10;;;23.60;53.10;;;;;;4880284;29;20084;-61
2021/07/24 08:57:39;;;;;;;5.68;3.00;;;23.60;53.10;;;;;;4881551;29;20413;-61
2021/07/24 09:00:13;;;;;;;4.78;2.72;;;23.60;53.10;;;;;;4881492;29;20028;-60
2021/07/24 09:02:43;;;;;;;5.60;3.20;;;23.60;53.10;;;;;;4881264;29;20049;-60
2021/07/24 09:05:11;;;;;;;6.43;3.20;;;23.60;53.10;;;;;;4880099;29;20063;-60
2021/07/24 09:07:40;;;;;;;5.50;2.92;;;23.60;53.10;;;;;;4881320;29;20057;-60
2021/07/24 09:10:07;;;;;;;5.03;2.78;;;23.60;53.10;;;;;;4881313;29;20017;-60
2021/07/24 09:12:34;;;;;;;7.93;3.03;;;23.60;53.10;;;;;;4881229;29;20651;-60
2021/07/24 09:14:59;;;;;;;6.80;3.05;;;23.60;53.10;;;;;;4881126;29;20037;-59
2021/07/24 09:17:28;;;;;;;4.97;2.90;;;23.60;53.10;;;;;;4881407;29;20036;-62
2021/07/24 09:19:55;;;;;;;5.35;2.72;;;23.60;53.10;;;;;;4881186;29;20391;-62
2021/07/24 09:22:38;;;;;;;5.72;3.10;;;23.60;53.10;;;;;;4881062;29;20033;-60
2021/07/24 09:25:22;;;;;;;5.47;2.85;;;23.60;53.10;;;;;;4881086;29;20033;-60
2021/07/24 09:27:49;;;;;;;4.88;2.65;;;23.70;53.20;;;;;;4881032;29;20474;-62
2021/07/24 09:30:24;;;;;;;6.78;3.33;;;23.70;53.20;;;;;;4880871;29;20036;-61
2021/07/24 09:33:08;;;;;;;6.28;3.03;;;23.70;53.10;;;;;;4880857;29;20101;-61
2021/07/24 09:35:35;;;;;;;6.35;3.30;;;23.70;53.10;;;;;;4880783;29;20032;-61
2021/07/24 09:38:01;;;;;;;4.90;2.83;;;23.70;53.20;;;;;;4880783;29;20029;-62
2021/07/24 09:40:26;;;;;;;5.45;3.08;;;23.70;53.10;;;;;;4880788;29;20017;-61
2021/07/24 09:42:52;;;;;;;4.38;2.65;;;23.70;53.20;;;;;;4879439;29;20037;-61
2021/07/24 09:45:20;;;;;;;6.80;3.13;;;23.70;53.10;;;;;;4880707;29;20032;-62
2021/07/24 09:47:47;;;;;;;4.93;2.90;;;23.70;53.10;;;;;;4881244;29;20040;-61
2021/07/24 09:50:15;;;;;;;4.75;3.00;;;23.70;53.10;;;;;;4887312;29;20018;-60
2021/07/24 09:52:53;;;;;;;4.80;2.88;;;23.80;53.10;;;;;;4880443;29;20025;-60
2021/07/24 09:55:19;;;;;;;5.45;3.05;;;23.80;53.10;;;;;;4880620;29;20142;-62
2021/07/24 09:57:44;;;;;;;6.10;3.28;;;23.80;53.10;;;;;;4880559;29;20069;-60
2021/07/24 10:00:42;;;;;;;5.57;2.85;;;23.80;53.10;;;;;;4880561;29;20386;-60
2021/07/24 10:03:08;;;;;;;7.13;2.75;;;23.80;53.10;;;;;;4869254;29;20139;-60
2021/07/24 10:05:40;;;;;;;5.32;2.80;;;23.80;53.10;;;;;;4883752;29;20052;-62
2021/07/24 10:08:10;;;;;;;6.65;3.30;;;23.80;53.10;;;;;;4880476;29;20475;-60
2021/07/24 10:10:38;;;;;;;4.72;2.80;;;23.90;53.10;;;;;;4880493;29;20358;-60
2021/07/24 10:13:12;;;;;;;5.53;3.00;;;23.90;53.10;;;;;;4880186;29;20051;-60
2021/07/24 10:15:43;;;;;;;6.57;2.88;;;23.90;53.10;;;;;;4880286;29;20124;-60
2021/07/24 10:18:11;;;;;;;5.72;3.17;;;23.90;53.10;;;;;;4880308;29;20037;-59
2021/07/24 10:20:39;;;;;;;5.00;2.60;;;23.90;53.10;;;;;;4880026;29;20037;-59
2021/07/24 10:23:05;;;;;;;4.97;2.60;;;23.90;53.10;;;;;;4878813;29;20380;-59
2021/07/24 10:25:40;;;;;;;4.85;2.70;;;23.90;53.00;;;;;;4879935;29;20025;-61
2021/07/24 10:28:10;;;;;;;5.05;2.88;;;23.90;53.00;;;;;;4879605;29;20124;-61
2021/07/24 10:30:36;;;;;;;5.35;2.92;;;23.90;53.00;;;;;;4879978;29;20017;-61
2021/07/24 10:33:02;;;;;;;7.22;3.22;;;24.00;53.00;;;;;;4879874;29;20037;-61
2021/07/24 10:35:41;;;;;;;6.68;3.05;;;24.00;53.00;;;;;;4879952;29;20029;-61
2021/07/24 10:38:26;;;;;;;5.82;3.15;;;24.00;52.90;;;;;;4879785;29;20107;-61
2021/07/24 10:40:51;;;;;;;6.80;3.20;;;24.00;53.00;;;;;;4878692;29;20052;-62
2021/07/24 10:44:03;;;;;;;6.13;3.08;;;24.00;53.00;;;;;;4879897;29;20446;-61
2021/07/24 10:47:01;;;;;;;5.75;3.50;;;24.00;53.00;;;;;;4878669;29;20124;-60
2021/07/24 10:49:35;;;;;;;5.88;3.10;;;24.00;53.00;;;;;;4879636;29;20040;-61
2021/07/24 10:52:02;;;;;;;5.45;3.33;;;24.00;53.10;;;;;;4879649;29;20031;-60
2021/07/24 10:54:28;;;;;;;5.15;2.80;;;24.00;53.10;;;;;;4879726;29;20067;-61
2021/07/24 10:56:54;;;;;;;5.63;3.25;;;24.00;53.10;;;;;;4879577;29;20039;-61
2021/07/24 10:59:30;;;;;;;5.82;3.33;;;24.00;53.10;;;;;;4879614;29;20116;-61
2021/07/24 11:02:00;;;;;;;4.28;2.63;;;24.00;53.10;;;;;;4879419;29;20025;-62
2021/07/24 11:04:42;;;;;;;5.05;2.90;;;24.00;53.10;;;;;;4879102;29;20064;-60
2021/07/24 11:07:14;;;;;;;5.43;3.20;;;24.00;53.10;;;;;;4879636;29;20017;-59
2021/07/24 11:09:43;;;;;;;4.95;2.92;;;24.00;53.10;;;;;;4879152;29;20056;-60
2021/07/24 11:12:32;;;;;;;5.45;2.67;;;24.00;53.20;;;;;;4878917;29;20037;-60
2021/07/24 11:14:58;;;;;;;6.35;2.63;;;24.00;53.20;;;;;;4879454;29;20124;-60
2021/07/24 11:17:24;;;;;;;5.00;2.85;;;24.00;53.20;;;;;;4879335;29;20112;-60
2021/07/24 11:19:49;;;;;;;5.68;3.20;;;24.00;53.20;;;;;;4879118;29;20044;-60
2021/07/24 11:22:18;;;;;;;4.80;3.05;;;24.00;53.20;;;;;;4879417;29;20385;-60
2021/07/24 11:24:50;;;;;;;5.10;2.75;;;24.00;53.20;;;;;;4879093;29;20029;-60
2021/07/24 11:27:30;;;;;;;3.95;2.15;;;24.00;53.20;;;;;;4879120;29;20430;-60
2021/07/24 11:30:02;;;;;;;5.38;3.03;;;24.00;53.10;;;;;;4879256;29;20029;-60
2021/07/24 11:32:29;;;;;;;5.20;2.88;;;24.10;53.20;;;;;;4879048;29;20037;-60
2021/07/24 11:34:59;;;;;;;6.07;3.38;;;24.00;53.20;;;;;;4879047;29;20033;-60
2021/07/24 11:37:45;;;;;;;5.03;2.80;;;24.00;53.20;;;;;;4879732;29;20025;-61
2021/07/24 11:40:16;;;;;;;4.82;2.55;;;24.00;53.20;;;;;;4883177;29;20044;-60
2021/07/24 11:42:43;;;;;;;4.38;2.55;;;24.00;53.20;;;;;;4883075;29;20026;-60
2021/07/24 11:45:18;;;;;;;6.20;2.97;;;24.00;53.20;;;;;;4883037;29;20136;-60
2021/07/24 11:47:43;;;;;;;5.65;2.80;;;24.00;53.20;;;;;;4883030;29;20035;-60
2021/07/24 11:50:21;;;;;;;4.45;2.70;;;24.00;53.20;;;;;;4882808;29;20033;-60
2021/07/24 11:52:50;;;;;;;4.35;2.53;;;24.00;53.20;;;;;;4882515;29;20187;-60
2021/07/24 11:55:26;;;;;;;4.68;2.65;;;24.00;53.30;;;;;;4882683;29;20029;-60
2021/07/24 11:58:03;;;;;;;5.35;2.95;;;24.00;53.20;;;;;;4882631;29;20040;-60
2021/07/24 12:00:39;;;;;;;5.53;2.25;;;24.00;53.20;;;;;;4882651;29;20025;-60
2021/07/24 12:03:21;;;;;;;4.07;2.15;;;24.00;53.20;;;;;;4882592;29;20150;-60
2021/07/24 12:05:48;;;;;;;5.22;2.38;;;24.00;53.30;;;;;;4882384;29;20362;-61
2021/07/24 12:08:16;;;;;;;4.82;2.88;;;24.00;53.30;;;;;;4882479;29;20040;-60
2021/07/24 12:10:44;;;;;;;5.80;2.60;;;24.00;53.30;;;;;;4882312;29;20385;-60
2021/07/24 12:13:11;;;;;;;4.13;2.33;;;24.00;53.30;;;;;;4882090;29;20121;-60
2021/07/24 12:15:55;;;;;;;5.78;3.00;;;24.00;53.30;;;;;;4882273;29;20017;-60
2021/07/24 12:18:21;;;;;;;4.63;2.67;;;24.00;53.30;;;;;;4882072;29;20033;-64
2021/07/24 12:20:49;;;;;;;5.65;2.65;;;24.00;53.30;;;;;;4882146;29;20044;-60
2021/07/24 12:23:22;;;;;;;6.03;3.05;;;24.00;53.30;;;;;;4882122;29;20028;-60
2021/07/24 12:26:06;;;;;;;5.00;3.03;;;24.00;53.30;;;;;;4882194;29;20025;-60
2021/07/24 12:28:32;;;;;;;4.63;2.80;;;24.00;53.30;;;;;;4882809;29;20029;-60
2021/07/24 12:31:23;;;;;;;4.60;2.45;;;24.00;53.30;;;;;;4882423;29;20383;-61
2021/07/24 12:33:58;;;;;;;7.72;3.15;;;24.00;53.30;;;;;;4882098;29;20076;-60
2021/07/24 12:36:26;;;;;;;5.28;3.03;;;24.10;53.30;;;;;;4883764;29;20025;-60
2021/07/24 12:38:52;;;;;;;3.90;2.28;;;24.00;53.30;;;;;;4881787;29;20161;-60
2021/07/24 12:41:31;;;;;;;5.25;2.72;;;24.10;53.30;;;;;;4882069;29;20032;-60
2021/07/24 12:44:08;;;;;;;3.45;2.03;;;24.00;53.30;;;;;;4881827;29;20033;-60
2021/07/24 12:46:38;;;;;;;4.57;2.85;;;24.10;53.30;;;;;;4881690;29;20116;-60
2021/07/24 12:49:05;;;;;;;3.65;2.20;;;24.10;53.30;;;;;;4880903;29;20037;-60
2021/07/24 12:51:42;;;;;;;4.88;2.67;;;24.10;53.30;;;;;;4881493;29;20500;-59
2021/07/24 12:54:18;;;;;;;5.40;3.15;;;24.10;53.30;;;;;;4881545;29;20409;-60
2021/07/24 12:56:46;;;;;;;4.05;2.22;;;24.10;53.30;;;;;;4881612;29;20032;-61